Time;durP1;ratioP1;P1;durP2;ratioP2;P2;SDS_P1;SDS_P2;PMS_P1;PMS_P2;Temp;Humidity;BMP_temperature;BMP_pressure;BME280_temperature;BME280_humidity;BME280_pressure;Samples;Min_cycle;Max_cycle;Signal;HPM_P1;HPM_P2
2024/01/27 00:01:20;;;;;;;23.10;3.60;;;;;;;0.98;100.00;103351.97;4920417;29;20323;-87
2024/01/27 00:03:46;;;;;;;23.00;4.57;;;;;;;0.97;100.00;103337.72;4937071;29;20035;-87
2024/01/27 00:06:16;;;;;;;16.17;4.10;;;;;;;1.00;100.00;103347.38;4920365;29;20457;-87
2024/01/27 00:08:42;;;;;;;21.13;4.22;;;;;;;0.98;100.00;103344.78;4920386;29;20428;-87
2024/01/27 00:11:07;;;;;;;22.93;4.57;;;;;;;0.97;100.00;103339.53;4920093;29;20126;-87
2024/01/27 00:13:33;;;;;;;19.73;4.40;;;;;;;0.93;100.00;103332.66;4935876;29;20034;-87
2024/01/27 00:15:59;;;;;;;18.37;4.33;;;;;;;0.95;100.00;103331.63;4919445;29;20123;-88
2024/01/27 00:18:24;;;;;;;18.70;4.43;;;;;;;0.97;100.00;103319.00;4920159;29;20068;-87
2024/01/27 00:20:49;;;;;;;21.02;4.82;;;;;;;0.95;100.00;103318.25;4937313;29;20035;-88
2024/01/27 00:23:15;;;;;;;19.03;4.60;;;;;;;0.96;100.00;103317.31;4919685;29;20119;-87
2024/01/27 00:25:43;;;;;;;22.67;4.37;;;;;;;0.96;100.00;103325.31;4919774;29;20032;-87
2024/01/27 00:28:09;;;;;;;12.38;3.60;;;;;;;0.91;100.00;103322.03;4935153;29;20044;-88
2024/01/27 00:30:37;;;;;;;22.73;4.83;;;;;;;0.96;100.00;103324.44;4920109;29;20056;-88
2024/01/27 00:33:02;;;;;;;12.00;4.38;;;;;;;0.93;100.00;103325.50;4920259;29;20094;-87
2024/01/27 00:35:30;;;;;;;15.20;4.55;;;;;;;0.92;100.00;103325.59;4919664;29;20409;-87
2024/01/27 00:37:56;;;;;;;16.65;4.30;;;;;;;0.92;100.00;103336.28;4935325;29;20035;-87
2024/01/27 00:40:46;;;;;;;21.10;4.63;;;;;;;0.93;100.00;103354.03;4919449;29;20034;-87
2024/01/27 00:43:12;;;;;;;17.55;4.30;;;;;;;0.88;100.00;103338.28;4935306;29;20044;-87
2024/01/27 00:45:37;;;;;;;13.97;4.27;;;;;;;0.83;100.00;103345.72;4919252;29;20034;-88
2024/01/27 00:48:36;;;;;;;16.77;4.50;;;;;;;0.82;100.00;103349.31;4919103;29;20047;-88
2024/01/27 00:55:03;;;;;;;14.77;4.28;;;;;;;0.76;100.00;103344.34;4936676;29;20495;-87
2024/01/27 01:01:01;;;;;;;12.43;4.32;;;;;;;0.67;100.00;103340.41;4936359;29;20046;-88
2024/01/27 01:06:48;;;;;;;20.38;4.60;;;;;;;0.67;100.00;103348.41;4936254;29;20030;-87
2024/01/27 01:09:22;;;;;;;21.33;5.13;;;;;;;0.60;100.00;103347.88;4919428;29;20040;-87
2024/01/27 01:11:48;;;;;;;22.38;5.05;;;;;;;0.55;100.00;103359.78;4936487;29;20058;-87
2024/01/27 01:14:14;;;;;;;20.05;4.72;;;;;;;0.48;100.00;103359.28;4935230;29;20468;-87
2024/01/27 01:16:40;;;;;;;21.23;4.77;;;;;;;0.48;100.00;103357.47;4935145;29;20046;-87
2024/01/27 01:19:08;;;;;;;13.52;4.68;;;;;;;0.43;100.00;103339.97;4922763;29;20074;-87
2024/01/27 01:21:34;;;;;;;18.48;4.38;;;;;;;0.41;100.00;103345.41;4923187;29;20057;-87
2024/01/27 01:24:02;;;;;;;15.87;4.40;;;;;;;0.39;100.00;103354.47;4922935;29;20374;-88
2024/01/27 01:26:27;;;;;;;24.02;4.85;;;;;;;0.39;100.00;103355.34;4939669;29;20145;-88
2024/01/27 01:28:53;;;;;;;18.40;4.37;;;;;;;0.38;100.00;103353.59;4938994;29;20484;-88
2024/01/27 01:31:18;;;;;;;24.23;5.30;;;;;;;0.38;100.00;103350.94;4923059;29;20130;-88
2024/01/27 01:33:44;;;;;;;17.85;4.60;;;;;;;0.38;100.00;103344.72;4922935;29;20130;-88
2024/01/27 01:36:10;;;;;;;22.87;5.20;;;;;;;0.42;100.00;103354.31;4907103;29;20131;-88
2024/01/27 01:38:35;;;;;;;24.02;5.25;;;;;;;0.35;100.00;103345.75;4922789;29;20071;-87
2024/01/27 01:41:04;;;;;;;21.20;4.80;;;;;;;0.33;100.00;103350.34;4923436;29;20031;-89
2024/01/27 01:43:29;;;;;;;20.25;5.43;;;;;;;0.33;100.00;103359.19;4922476;29;20122;-87
2024/01/27 01:45:55;;;;;;;20.30;5.10;;;;;;;0.31;100.00;103355.78;4922560;29;20473;-88
2024/01/27 01:48:21;;;;;;;24.50;5.63;;;;;;;0.36;100.00;103355.50;4940453;29;20031;-93
2024/01/27 01:50:53;;;;;;;21.83;6.00;;;;;;;0.31;100.00;103353.09;4907231;29;20032;-89
2024/01/27 01:53:18;;;;;;;15.70;5.70;;;;;;;0.30;100.00;103358.53;4906336;29;20032;-87
2024/01/27 01:55:46;;;;;;;22.50;6.33;;;;;;;0.28;100.00;103358.63;4939288;29;20095;-88
2024/01/27 01:58:11;;;;;;;24.15;5.55;;;;;;;0.33;100.00;103363.69;4939336;29;20098;-88
2024/01/27 02:00:37;;;;;;;22.80;5.90;;;;;;;0.30;100.00;103366.53;4922450;29;20556;-88
2024/01/27 02:03:03;;;;;;;21.27;5.60;;;;;;;0.28;100.00;103353.28;4922389;29;20036;-88
2024/01/27 02:05:28;;;;;;;26.60;6.07;;;;;;;0.30;100.00;103353.19;4939400;29;20047;-87
2024/01/27 02:07:59;;;;;;;24.03;5.73;;;;;;;0.28;100.00;103360.41;4922566;29;20036;-87
2024/01/27 02:10:25;;;;;;;21.80;5.07;;;;;;;0.32;100.00;103364.63;4922381;29;20038;-87
2024/01/27 02:12:53;;;;;;;15.87;4.90;;;;;;;0.34;100.00;103365.44;4921955;29;20023;-87
2024/01/27 02:15:20;;;;;;;18.70;5.32;;;;;;;0.35;100.00;103359.13;4922277;29;20110;-87
2024/01/27 02:17:45;;;;;;;18.50;5.40;;;;;;;0.30;100.00;103367.38;4921795;29;20040;-87
2024/01/27 02:20:11;;;;;;;17.10;5.43;;;;;;;0.27;100.00;103366.72;4921729;29;20034;-88
2024/01/27 02:22:37;;;;;;;24.20;5.72;;;;;;;0.27;100.00;103361.38;4921747;29;20099;-88
2024/01/27 02:25:05;;;;;;;15.47;5.27;;;;;;;0.28;100.00;103368.41;4922302;29;20044;-88
2024/01/27 02:27:31;;;;;;;16.85;5.07;;;;;;;0.24;100.00;103367.75;4921478;29;20077;-87
2024/01/27 02:29:59;;;;;;;20.97;5.50;;;;;;;0.31;100.00;103376.25;4920869;29;20548;-88
2024/01/27 02:32:24;;;;;;;23.73;5.90;;;;;;;0.34;100.00;103376.97;4938797;29;20043;-87
2024/01/27 02:34:50;;;;;;;16.63;5.47;;;;;;;0.30;100.00;103375.41;4922941;29;20168;-88
2024/01/27 02:37:15;;;;;;;24.27;7.07;;;;;;;0.25;100.00;103364.13;4922146;29;20473;-87
2024/01/27 02:39:50;;;;;;;24.80;6.07;;;;;;;0.24;100.00;103364.22;4922880;29;20279;-87
2024/01/27 02:42:19;;;;;;;17.58;5.28;;;;;;;0.24;100.00;103372.22;4937933;29;20122;-87
2024/01/27 02:44:45;;;;;;;20.10;5.43;;;;;;;0.23;100.00;103373.16;4921839;29;20091;-87
2024/01/27 02:47:10;;;;;;;19.77;5.90;;;;;;;0.21;100.00;103365.25;4939084;29;20044;-88
2024/01/27 02:49:35;;;;;;;23.07;5.70;;;;;;;0.19;100.00;103367.13;4921044;29;20473;-88
2024/01/27 02:52:01;;;;;;;17.00;5.03;;;;;;;0.20;100.00;103378.69;4921641;29;20028;-87
2024/01/27 02:54:27;;;;;;;20.40;5.13;;;;;;;0.17;100.00;103366.34;4921384;29;20024;-87
2024/01/27 02:56:52;;;;;;;22.27;5.88;;;;;;;0.12;100.00;103363.09;4921437;29;20035;-88
2024/01/27 02:59:18;;;;;;;17.33;4.80;;;;;;;0.13;100.00;103370.13;4921861;29;20055;-87
2024/01/27 03:01:44;;;;;;;16.40;5.38;;;;;;;0.11;100.00;103367.56;4921693;29;20031;-88
2024/01/27 03:04:09;;;;;;;25.17;5.00;;;;;;;0.10;100.00;103368.50;4939344;29;20110;-88
2024/01/27 03:06:35;;;;;;;22.40;5.13;;;;;;;0.07;100.00;103360.66;4921554;29;20035;-88
2024/01/27 03:09:03;;;;;;;18.00;5.15;;;;;;;0.05;100.00;103369.72;4921996;29;20275;-87
2024/01/27 03:11:29;;;;;;;16.20;4.65;;;;;;;0.08;100.00;103364.19;4921360;29;20036;-89
2024/01/27 03:14:02;;;;;;;22.90;5.93;;;;;;;0.05;100.00;103365.22;4938312;29;20047;-87
2024/01/27 03:16:32;;;;;;;17.08;5.43;;;;;;;0.04;100.00;103376.00;4921951;29;20033;-87
2024/01/27 03:18:57;;;;;;;18.77;5.20;;;;;;;0.03;100.00;103375.13;4936681;29;20036;-87
2024/01/27 03:21:23;;;;;;;19.20;5.00;;;;;;;-0.03;100.00;103370.09;4920727;29;20299;-87
2024/01/27 03:23:48;;;;;;;20.17;5.60;;;;;;;-0.02;100.00;103388.72;4906307;29;20039;-88
2024/01/27 03:26:16;;;;;;;23.30;5.83;;;;;;;-0.09;100.00;103370.44;4937092;29;20031;-88
2024/01/27 03:28:41;;;;;;;17.65;5.13;;;;;;;-0.09;100.00;103382.00;4920455;29;20059;-88
2024/01/27 03:31:07;;;;;;;21.47;5.50;;;;;;;-0.12;100.00;103383.97;4920671;29;20050;-87
2024/01/27 03:33:35;;;;;;;22.97;5.27;;;;;;;-0.14;100.00;103381.38;4905387;29;20027;-87
2024/01/27 03:36:00;;;;;;;18.92;5.20;;;;;;;-0.11;100.00;103375.88;4921132;29;20080;-87
2024/01/27 03:38:26;;;;;;;20.57;5.43;;;;;;;-0.09;100.00;103390.00;4920470;29;20433;-87
2024/01/27 03:40:51;;;;;;;14.18;4.75;;;;;;;-0.13;100.00;103393.78;4919991;29;20122;-87
2024/01/27 03:43:17;;;;;;;17.40;5.50;;;;;;;-0.13;100.00;103388.44;4938055;29;20028;-88
2024/01/27 03:45:45;;;;;;;16.20;4.78;;;;;;;-0.15;100.00;103384.97;4920278;29;20028;-88
2024/01/27 03:48:19;;;;;;;11.87;5.17;;;;;;;-0.19;100.00;103380.78;4920375;29;20036;-88
2024/01/27 03:50:44;;;;;;;21.83;5.93;;;;;;;-0.23;100.00;103369.38;4921241;29;20023;-88
2024/01/27 03:53:14;;;;;;;18.05;5.30;;;;;;;-0.24;100.00;103372.13;4936087;29;20071;-88
2024/01/27 03:55:40;;;;;;;17.30;5.63;;;;;;;-0.24;100.00;103377.47;4920693;29;20496;-87
2024/01/27 03:58:06;;;;;;;15.98;4.90;;;;;;;-0.28;100.00;103378.56;4920290;29;20032;-88
2024/01/27 04:00:34;;;;;;;16.70;5.20;;;;;;;-0.26;100.00;103376.72;4937449;29;20040;-88
2024/01/27 04:03:03;;;;;;;16.70;4.85;;;;;;;-0.32;100.00;103377.03;4920454;29;20483;-88
2024/01/27 04:05:29;;;;;;;18.40;5.10;;;;;;;-0.34;100.00;103371.75;4920543;29;20101;-88
2024/01/27 04:07:58;;;;;;;16.90;4.88;;;;;;;-0.31;100.00;103392.09;4920197;29;20453;-87
2024/01/27 04:10:23;;;;;;;19.75;5.50;;;;;;;-0.36;100.00;103389.66;4921104;29;20499;-88
2024/01/27 04:12:51;;;;;;;18.47;5.17;;;;;;;-0.34;100.00;103389.59;4919773;29;20035;-87
2024/01/27 04:15:26;;;;;;;24.20;5.78;;;;;;;-0.41;100.00;103379.25;4920479;29;20032;-88
2024/01/27 04:17:51;;;;;;;13.48;5.30;;;;;;;-0.38;100.00;103386.22;4920393;29;20036;-87
2024/01/27 04:20:22;;;;;;;15.90;5.20;;;;;;;-0.41;100.00;103389.91;4920059;29;20042;-88
2024/01/27 04:22:53;;;;;;;18.42;5.40;;;;;;;-0.43;100.00;103391.81;4936758;29;20063;-87
2024/01/27 04:25:18;;;;;;;19.00;5.57;;;;;;;-0.40;100.00;103394.31;4919797;29;20074;-88
2024/01/27 04:27:44;;;;;;;17.20;5.32;;;;;;;-0.41;100.00;103394.41;4919978;29;20336;-87
2024/01/27 04:30:14;;;;;;;21.73;6.47;;;;;;;-0.47;100.00;103394.69;4936718;29;20031;-88
2024/01/27 04:32:40;;;;;;;15.55;5.55;;;;;;;-0.49;100.00;103393.91;4937486;29;20114;-88
2024/01/27 04:35:09;;;;;;;23.40;5.60;;;;;;;-0.57;100.00;103387.19;4919702;29;20531;-87
2024/01/27 04:37:34;;;;;;;20.80;5.68;;;;;;;-0.58;100.00;103385.44;4920526;29;20031;-87
2024/01/27 04:40:00;;;;;;;12.67;5.97;;;;;;;-0.62;100.00;103383.91;4920445;29;20488;-87
2024/01/27 04:42:26;;;;;;;16.02;5.22;;;;;;;-0.57;100.00;103389.00;4934978;29;20028;-87
2024/01/27 04:44:52;;;;;;;21.40;5.80;;;;;;;-0.57;100.00;103392.50;4919351;29;20469;-87
2024/01/27 04:47:20;;;;;;;20.00;6.88;;;;;;;-0.57;100.00;103389.84;4920426;29;20053;-88
2024/01/27 04:49:46;;;;;;;22.55;5.43;;;;;;;-0.56;100.00;103393.38;4937271;29;20066;-87
2024/01/27 04:52:11;;;;;;;13.63;5.80;;;;;;;-0.54;100.00;103396.84;4918825;29;20032;-88
2024/01/27 04:54:39;;;;;;;18.60;6.47;;;;;;;-0.52;100.00;103399.41;4936414;29;20524;-88
2024/01/27 04:57:07;;;;;;;20.23;6.10;;;;;;;-0.52;100.00;103396.75;4935385;29;20491;-87
2024/01/27 04:59:32;;;;;;;19.02;6.10;;;;;;;-0.56;100.00;103385.38;4920039;29;20032;-87
2024/01/27 05:01:58;;;;;;;29.53;6.93;;;;;;;-0.59;100.00;103385.53;4919849;29;20038;-87
2024/01/27 05:04:26;;;;;;;18.23;6.37;;;;;;;-0.61;100.00;103385.59;4936225;29;20035;-88
2024/01/27 05:06:52;;;;;;;15.48;6.07;;;;;;;-0.63;100.00;103381.31;4919664;29;20123;-88
2024/01/27 05:09:18;;;;;;;18.00;6.40;;;;;;;-0.64;100.00;103390.25;4919340;29;20055;-88
2024/01/27 05:11:51;;;;;;;22.90;6.37;;;;;;;-0.67;100.00;103383.25;4935168;29;20039;-87
2024/01/27 05:14:17;;;;;;;23.75;6.90;;;;;;;-0.66;100.00;103395.66;4919685;29;20488;-87
2024/01/27 05:16:42;;;;;;;20.65;6.28;;;;;;;-0.71;100.00;103387.03;4918988;29;20032;-87
2024/01/27 05:19:10;;;;;;;19.20;5.93;;;;;;;-0.74;100.00;103390.72;4919195;29;20031;-88
2024/01/27 05:21:36;;;;;;;17.08;6.95;;;;;;;-0.75;100.00;103401.47;4918949;29;20087;-88
2024/01/27 05:24:02;;;;;;;18.17;7.10;;;;;;;-0.80;100.00;103395.50;4919227;29;20039;-88
2024/01/27 05:26:27;;;;;;;19.77;6.93;;;;;;;-0.82;100.00;103392.06;4919115;29;20031;-88
2024/01/27 05:28:53;;;;;;;25.00;7.15;;;;;;;-0.81;100.00;103393.78;4900533;29;20084;-88
2024/01/27 05:31:20;;;;;;;18.70;6.43;;;;;;;-0.79;100.00;103398.09;4917089;29;20114;-87
2024/01/27 05:33:46;;;;;;;22.08;7.18;;;;;;;-0.81;100.00;103393.78;4900671;29;20127;-88
2024/01/27 05:36:11;;;;;;;17.20;6.23;;;;;;;-0.78;100.00;103391.81;4915827;29;20171;-88
2024/01/27 05:38:37;;;;;;;21.40;7.00;;;;;;;-0.82;100.00;103387.59;4900024;29;20052;-87
2024/01/27 05:41:05;;;;;;;23.10;6.88;;;;;;;-0.83;100.00;103379.66;4916444;29;20460;-88
2024/01/27 05:43:33;;;;;;;20.03;6.83;;;;;;;-0.87;100.00;103370.97;4915953;29;20051;-89
2024/01/27 05:46:02;;;;;;;16.15;6.88;;;;;;;-0.90;100.00;103372.00;4900436;29;20059;-88
2024/01/27 05:48:37;;;;;;;20.08;7.22;;;;;;;-0.89;100.00;103362.19;4900109;29;20028;-88
2024/01/27 05:51:12;;;;;;;19.05;6.90;;;;;;;-0.95;100.00;103371.34;4916742;29;20032;-88
2024/01/27 05:54:17;;;;;;;23.25;7.53;;;;;;;-0.91;100.00;103364.91;4860526;29;20045;-88
2024/01/27 06:00:15;;;;;;;15.82;6.63;;;;;;;-0.93;100.00;103374.81;4858762;29;20040;-87
2024/01/27 06:02:41;;;;;;;16.60;6.93;;;;;;;-0.95;100.00;103383.81;4858868;29;20046;-87
2024/01/27 06:05:09;;;;;;;20.63;7.60;;;;;;;-0.95;100.00;103379.34;4862038;29;20030;-88
2024/01/27 06:07:38;;;;;;;20.67;7.85;;;;;;;-0.92;100.00;103375.66;4875993;29;20044;-87
2024/01/27 06:10:07;;;;;;;19.87;7.00;;;;;;;-0.95;100.00;103362.50;4919452;29;20032;-88
2024/01/27 06:12:38;;;;;;;30.20;8.15;;;;;;;-0.96;100.00;103368.75;4919208;29;20295;-88
2024/01/27 06:15:05;;;;;;;18.30;7.72;;;;;;;-0.97;100.00;103367.91;4903862;29;20036;-88
2024/01/27 06:17:31;;;;;;;19.45;8.10;;;;;;;-0.97;100.00;103370.56;4918805;29;20123;-88
2024/01/27 06:19:59;;;;;;;21.87;7.90;;;;;;;-0.98;100.00;103366.16;4919103;29;20485;-88
2024/01/27 06:22:24;;;;;;;19.55;7.38;;;;;;;-1.02;100.00;103369.91;4903165;29;20500;-88
2024/01/27 06:24:50;;;;;;;18.93;7.73;;;;;;;-1.01;100.00;103365.47;4919133;29;20028;-87
2024/01/27 06:30:37;;;;;;;27.48;8.00;;;;;;;-0.99;100.00;103374.25;4938633;29;20318;-88
2024/01/27 06:33:03;;;;;;;24.90;8.25;;;;;;;-0.95;100.00;103384.66;4921883;29;20126;-88
2024/01/27 06:35:29;;;;;;;22.23;7.83;;;;;;;-0.93;100.00;103368.59;4939063;29;20090;-87
2024/01/27 06:37:54;;;;;;;23.67;7.82;;;;;;;-0.91;100.00;103372.91;4922076;29;20028;-88
2024/01/27 06:40:30;;;;;;;19.45;7.82;;;;;;;-0.88;100.00;103375.44;4921255;29;20031;-88
2024/01/27 06:42:55;;;;;;;22.90;7.75;;;;;;;-0.88;100.00;103386.09;4921429;29;20499;-88
2024/01/27 06:45:21;;;;;;;18.70;7.90;;;;;;;-0.93;100.00;103384.59;4922265;29;20115;-87
2024/01/27 06:47:46;;;;;;;27.07;8.30;;;;;;;-0.93;100.00;103382.81;4921502;29;20387;-87
2024/01/27 06:50:13;;;;;;;19.13;7.67;;;;;;;-0.90;100.00;103393.31;4921313;29;20032;-87
2024/01/27 06:52:39;;;;;;;22.58;7.90;;;;;;;-0.91;100.00;103398.72;4922426;29;20660;-87
2024/01/27 06:55:06;;;;;;;25.10;7.93;;;;;;;-0.93;100.00;103396.13;4937058;29;20118;-86
2024/01/27 06:57:32;;;;;;;22.23;7.93;;;;;;;-0.93;100.00;103403.25;4939156;29;20035;-87
2024/01/27 07:00:00;;;;;;;29.45;8.27;;;;;;;-0.94;100.00;103405.06;4921452;29;20031;-89
2024/01/27 07:02:26;;;;;;;29.17;8.75;;;;;;;-0.95;100.00;103426.47;4937645;29;20596;-87
2024/01/27 07:04:52;;;;;;;21.52;8.15;;;;;;;-0.96;100.00;103420.28;4937515;29;20039;-87
2024/01/27 07:07:23;;;;;;;23.60;8.70;;;;;;;-0.96;100.00;103425.59;4921391;29;20047;-86
2024/01/27 07:09:51;;;;;;;20.73;7.32;;;;;;;-0.98;100.00;103424.81;4921619;29;20050;-87
2024/01/27 07:12:17;;;;;;;29.35;8.57;;;;;;;-0.99;100.00;103424.88;4921695;29;20062;-87
2024/01/27 07:14:45;;;;;;;21.63;8.17;;;;;;;-1.03;100.00;103420.63;4920069;29;20481;-87
2024/01/27 07:17:10;;;;;;;21.50;7.93;;;;;;;-1.01;100.00;103419.63;4905705;29;20087;-88
2024/01/27 07:19:36;;;;;;;27.87;8.93;;;;;;;-0.97;100.00;103413.22;4938651;29;20043;-87
2024/01/27 07:22:09;;;;;;;19.55;8.13;;;;;;;-0.91;100.00;103436.03;4920933;29;20035;-87
2024/01/27 07:24:34;;;;;;;25.40;8.83;;;;;;;-0.93;100.00;103432.56;4921375;29;20040;-88
2024/01/27 07:27:09;;;;;;;33.50;9.23;;;;;;;-0.97;100.00;103425.69;4937904;29;20494;-90
2024/01/27 07:29:37;;;;;;;20.03;7.90;;;;;;;-0.93;100.00;103433.44;4920291;29;20392;-87
2024/01/27 07:32:03;;;;;;;23.70;7.88;;;;;;;-0.95;100.00;103432.66;4901687;29;20084;-86
2024/01/27 07:34:28;;;;;;;28.45;8.85;;;;;;;-0.91;100.00;103431.56;4902106;29;20040;-86
2024/01/27 07:36:56;;;;;;;27.33;8.40;;;;;;;-0.89;100.00;103434.16;4917258;29;20035;-87
2024/01/27 07:39:24;;;;;;;26.08;7.55;;;;;;;-0.82;100.00;103448.91;4917641;29;20084;-86
2024/01/27 07:41:50;;;;;;;23.67;8.40;;;;;;;-0.82;100.00;103432.06;4917467;29;20461;-88
2024/01/27 07:44:21;;;;;;;21.20;8.82;;;;;;;-0.79;100.00;103432.75;4901552;29;20335;-87
2024/01/27 07:46:49;;;;;;;23.85;8.43;;;;;;;-0.74;100.00;103444.06;4918295;29;20044;-87
2024/01/27 07:49:18;;;;;;;24.83;7.90;;;;;;;-0.73;100.00;103434.25;4917111;29;20032;-88
2024/01/27 07:51:46;;;;;;;22.73;8.63;;;;;;;-0.71;100.00;103443.91;4919747;29;20036;-87
2024/01/27 07:54:12;;;;;;;28.17;9.35;;;;;;;-0.67;100.00;103436.59;4917414;29;20036;-87
2024/01/27 07:56:47;;;;;;;23.97;8.27;;;;;;;-0.61;100.00;103440.75;4918277;29;20162;-87
2024/01/27 07:59:15;;;;;;;22.77;8.30;;;;;;;-0.62;100.00;103437.25;4902321;29;20063;-87
2024/01/27 08:01:48;;;;;;;25.40;8.25;;;;;;;-0.55;100.00;103451.09;4901361;29;20478;-89
2024/01/27 08:04:16;;;;;;;28.13;8.63;;;;;;;-0.55;100.00;103437.78;4901680;29;20135;-87
2024/01/27 08:06:55;;;;;;;24.10;8.50;;;;;;;-0.49;100.00;103441.94;4901351;29;20076;-87
2024/01/27 08:09:24;;;;;;;26.47;7.70;;;;;;;-0.46;100.00;103431.94;4901176;29;20051;-87
2024/01/27 08:11:51;;;;;;;23.45;7.78;;;;;;;-0.44;100.00;103423.91;4916802;29;20043;-87
2024/01/27 08:14:22;;;;;;;25.73;9.10;;;;;;;-0.39;100.00;103417.34;4901233;29;20048;-87
2024/01/27 08:16:48;;;;;;;30.23;8.15;;;;;;;-0.33;100.00;103426.84;4901827;29;20028;-87
2024/01/27 08:19:19;;;;;;;27.97;8.17;;;;;;;-0.31;100.00;103433.00;4918124;29;20469;-87
2024/01/27 08:21:45;;;;;;;26.40;8.00;;;;;;;-0.27;100.00;103431.00;4901330;29;20030;-87
2024/01/27 08:24:11;;;;;;;22.93;7.60;;;;;;;-0.27;100.00;103425.66;4917242;29;20401;-87
2024/01/27 08:26:36;;;;;;;30.25;8.75;;;;;;;-0.22;100.00;103420.97;4900790;29;20032;-87
2024/01/27 08:29:02;;;;;;;20.80;7.70;;;;;;;-0.15;100.00;103419.66;4916424;29;20028;-87
2024/01/27 08:31:27;;;;;;;23.77;7.07;;;;;;;-0.11;100.00;103425.72;4930819;29;20416;-87
2024/01/27 08:33:57;;;;;;;26.80;7.38;;;;;;;-0.06;100.00;103415.66;4937209;29;20051;-87
2024/01/27 08:36:22;;;;;;;29.10;7.10;;;;;;;-0.02;100.00;103422.56;4919383;29;20038;-86
2024/01/27 08:38:48;;;;;;;27.43;8.13;;;;;;;0.05;100.00;103423.09;4935174;29;20031;-87
2024/01/27 08:41:18;;;;;;;22.03;7.63;;;;;;;0.10;100.00;103431.72;4919268;29;20031;-87
2024/01/27 08:43:49;;;;;;;22.90;7.72;;;;;;;0.15;100.00;103435.84;4919701;29;20066;-87
2024/01/27 08:46:22;;;;;;;27.58;7.75;;;;;;;0.20;100.00;103437.44;4919703;29;20090;-87
2024/01/27 08:48:48;;;;;;;23.58;8.43;;;;;;;0.21;100.00;103437.34;4934682;29;20472;-87
2024/01/27 08:51:15;;;;;;;18.57;7.47;;;;;;;0.25;100.00;103438.03;4919120;29;20059;-87
2024/01/27 08:53:42;;;;;;;27.55;8.55;;;;;;;0.30;100.00;103433.31;4903825;29;20315;-87
2024/01/27 08:56:07;;;;;;;20.85;8.77;;;;;;;0.37;100.00;103448.06;4919697;29;20031;-87
2024/01/27 08:58:33;;;;;;;24.30;8.23;;;;;;;0.42;100.00;103437.97;4936663;29;20035;-87
2024/01/27 09:01:05;;;;;;;21.30;7.65;;;;;;;0.48;100.00;103442.97;4919025;29;20363;-88
2024/01/27 09:03:31;;;;;;;23.40;7.60;;;;;;;0.55;100.00;103451.50;4919787;29;20480;-86
2024/01/27 09:05:58;;;;;;;28.07;8.13;;;;;;;0.57;100.00;103448.75;4918892;29;20032;-88
2024/01/27 09:08:26;;;;;;;29.60;7.47;;;;;;;0.69;100.00;103454.28;4936226;29;20046;-87
2024/01/27 09:10:52;;;;;;;21.20;7.35;;;;;;;0.75;100.00;103444.16;4919542;29;20042;-86
2024/01/27 09:13:17;;;;;;;24.80;7.97;;;;;;;0.82;100.00;103448.22;4919180;29;20119;-86
2024/01/27 09:15:48;;;;;;;26.13;7.37;;;;;;;0.91;100.00;103441.50;4903476;29;20447;-87
2024/01/27 09:18:14;;;;;;;29.70;7.78;;;;;;;0.99;100.00;103444.56;4920049;29;20283;-87
2024/01/27 09:20:43;;;;;;;24.60;7.78;;;;;;;1.10;100.00;103458.19;4935930;29;20059;-88
2024/01/27 09:23:08;;;;;;;19.92;6.95;;;;;;;1.18;100.00;103461.28;4919334;29;20032;-88
2024/01/27 09:25:37;;;;;;;25.53;7.83;;;;;;;1.28;100.00;103458.06;4919123;29;20520;-87
2024/01/27 09:28:03;;;;;;;22.58;7.18;;;;;;;1.34;100.00;103458.56;4918745;29;20420;-87
2024/01/27 09:30:28;;;;;;;26.33;7.70;;;;;;;1.40;100.00;103462.69;4919237;29;20508;-87
2024/01/27 09:32:59;;;;;;;27.38;8.13;;;;;;;1.45;100.00;103473.09;4918889;29;20034;-87
2024/01/27 09:35:27;;;;;;;18.98;6.35;;;;;;;1.50;100.00;103473.72;4919117;29;20075;-87
2024/01/27 09:37:52;;;;;;;27.70;6.70;;;;;;;1.57;100.00;103477.75;4919389;29;20036;-87
2024/01/27 09:40:18;;;;;;;17.98;6.90;;;;;;;1.63;100.00;103484.56;4922531;29;20050;-87
2024/01/27 09:42:58;;;;;;;21.50;7.73;;;;;;;1.68;100.00;103488.69;4922830;29;20031;-87
2024/01/27 09:45:24;;;;;;;21.08;6.55;;;;;;;1.71;100.00;103484.94;4922933;29;20106;-86
2024/01/27 09:47:51;;;;;;;24.52;6.38;;;;;;;1.79;100.00;103492.50;4922280;29;20032;-88
2024/01/27 09:50:20;;;;;;;28.47;7.93;;;;;;;1.83;100.00;103496.72;4922407;29;20527;-87
2024/01/27 09:52:50;;;;;;;22.67;6.60;;;;;;;1.88;100.00;103486.63;4922578;29;20287;-87
2024/01/27 09:55:15;;;;;;;19.80;7.03;;;;;;;1.92;100.00;103485.47;4922547;29;20136;-88
2024/01/27 09:57:41;;;;;;;21.88;6.60;;;;;;;1.98;100.00;103497.59;4923166;29;20118;-88
2024/01/27 10:00:31;;;;;;;24.53;6.80;;;;;;;2.08;100.00;103496.97;4906771;29;20469;-87
2024/01/27 10:02:58;;;;;;;25.20;7.50;;;;;;;2.13;100.00;103499.38;4938970;29;20043;-87
2024/01/27 10:05:27;;;;;;;18.92;6.13;;;;;;;2.20;100.00;103495.34;4922326;29;20106;-87
2024/01/27 10:07:55;;;;;;;23.33;6.50;;;;;;;2.31;100.00;103507.22;4922088;29;20114;-88
2024/01/27 10:10:30;;;;;;;31.30;6.27;;;;;;;2.38;100.00;103503.22;4906192;29;20066;-87
2024/01/27 10:13:00;;;;;;;18.33;5.60;;;;;;;2.42;100.00;103494.00;4937702;29;20040;-86
2024/01/27 10:15:28;;;;;;;21.20;5.78;;;;;;;2.53;100.00;103509.41;4938861;29;20040;-87
2024/01/27 10:18:07;;;;;;;25.00;6.95;;;;;;;2.57;100.00;103502.88;4922342;29;20429;-87
2024/01/27 10:20:38;;;;;;;25.08;5.70;;;;;;;2.62;100.00;103504.31;4922237;29;20031;-87
2024/01/27 10:23:15;;;;;;;19.10;6.00;;;;;;;2.74;100.00;103502.66;4921824;29;20476;-87
2024/01/27 10:25:41;;;;;;;20.15;6.03;;;;;;;2.81;100.00;103505.81;4921476;29;20481;-87
2024/01/27 10:28:10;;;;;;;17.02;5.82;;;;;;;2.94;100.00;103513.94;4921947;29;20032;-88
2024/01/27 10:30:36;;;;;;;20.17;6.10;;;;;;;3.02;100.00;103502.72;4921598;29;20055;-87
2024/01/27 10:33:02;;;;;;;17.92;5.78;;;;;;;3.12;100.00;103506.50;4938856;29;20472;-87
2024/01/27 10:35:30;;;;;;;17.67;4.90;;;;;;;3.26;100.00;103519.00;4938140;29;20130;-87
2024/01/27 10:37:59;;;;;;;16.90;5.20;;;;;;;3.34;100.00;103514.84;4921336;29;20066;-87
2024/01/27 10:40:26;;;;;;;15.30;5.30;;;;;;;3.47;100.00;103504.16;4937243;29;20396;-87
2024/01/27 10:43:17;;;;;;;21.20;5.18;;;;;;;3.63;100.00;103513.84;4921623;29;20039;-87
2024/01/27 10:45:44;;;;;;;16.05;5.47;;;;;;;3.69;100.00;103514.31;4931164;29;20050;-86
2024/01/27 10:48:18;;;;;;;18.43;5.30;;;;;;;3.84;100.00;103509.72;4921263;29;20023;-87
2024/01/27 10:50:43;;;;;;;21.33;5.78;;;;;;;3.91;100.00;103502.06;4920145;29;20473;-87
2024/01/27 10:53:21;;;;;;;22.20;5.37;;;;;;;4.04;100.00;103499.41;4921772;29;20054;-87
2024/01/27 10:55:47;;;;;;;18.73;4.95;;;;;;;4.18;100.00;103498.44;4937662;29;20032;-87
2024/01/27 10:58:14;;;;;;;18.05;4.90;;;;;;;4.31;100.00;103498.41;4921640;29;20087;-87
2024/01/27 11:00:42;;;;;;;20.88;5.15;;;;;;;4.43;100.00;103488.63;4938634;29;20090;-87
2024/01/27 11:03:24;;;;;;;;;;;;;;;;;;;;;
2024/01/27 11:05:57;;;;;;;20.47;4.80;;;;;;;4.70;100.00;103480.41;4938133;29;20116;-87
2024/01/27 11:08:27;;;;;;;15.27;4.57;;;;;;;4.81;100.00;103475.06;4922247;29;20027;-87
2024/01/27 11:10:53;;;;;;;20.17;4.28;;;;;;;4.98;100.00;103483.75;4921564;29;20036;-87
2024/01/27 11:13:19;;;;;;;20.20;4.70;;;;;;;5.05;100.00;103472.41;4921151;29;20054;-86
2024/01/27 11:16:17;;;;;;;17.38;4.50;;;;;;;5.20;100.00;103478.47;4921148;29;20121;-87
2024/01/27 11:18:42;;;;;;;16.83;4.13;;;;;;;5.37;100.00;103470.97;4936973;29;20047;-87
2024/01/27 11:21:23;;;;;;;;;;;;;;;;;;;;;
2024/01/27 11:23:51;;;;;;;19.10;4.03;;;;;;;5.71;100.00;103465.69;4938660;29;20030;-87
2024/01/27 11:26:22;;;;;;;18.05;3.88;;;;;;;5.92;100.00;103473.91;4938656;29;20034;-87
2024/01/27 11:28:51;;;;;;;10.45;3.25;;;;;;;6.36;100.00;103474.94;4921250;29;20094;-88
2024/01/27 11:31:22;;;;;;;14.88;3.38;;;;;;;7.67;100.00;103472.22;4920245;29;20052;-87
2024/01/27 11:33:52;;;;;;;24.02;3.88;;;;;;;9.13;100.00;103477.34;4921320;29;20040;-87
2024/01/27 11:36:23;;;;;;;13.17;4.17;;;;;;;10.42;95.79;103466.13;4920788;29;20055;-87
2024/01/27 11:39:16;;;;;;;17.25;3.50;;;;;;;11.23;83.02;103456.31;4905494;29;20059;-91